Latest Weather Observations for Cummins Airport

IDS60801

Issued at 9:35 pm CST Tuesday 30 September 2014 (issued every 30 minutes, with the page automatically refreshed every 10 minutes)

About weather observations | Map of weather stations | Latest weather observations for SA | Other Formats
Station Details ID: 018217 Name: CUMMINS AERO Lat: -34.25 Lon: 135.71 Height: 60.11 m
Data from the previous 72 hours. | See also: Recent months at Cummins Airport
Date/Time
CST
Temp
°C
App
Temp
°C
Dew
Point
Rel
Hum
%
Delta-T
°C
Wind Press
QNH
hPa
Press
MSL
hPa
Rain
since 9 am
mm
Dir
 
Spd
km/h
Gust
km/h
Spd
kts
Gust
kts
30/09:30pm 8.6 7.9 7.1 90 0.7 ENE 0 0 0 0 1024.2 1024.2 0.0
30/09:00pm 8.9 7.0 6.7 86 1.0 W 6 9 3 5 1023.8 1023.8 0.0
30/08:30pm 10.6 8.0 7.8 83 1.3 SW 11 13 6 7 1023.6 1023.6 0.0
30/08:00pm 11.7 8.3 7.6 76 2.0 SW 15 19 8 10 1023.2 1023.2 0.0
30/07:30pm 12.3 8.5 7.4 72 2.4 SW 17 22 9 12 1022.7 1022.7 0.0
30/07:00pm 12.9 8.5 7.4 69 2.7 SW 20 30 11 16 1022.1 1022.1 0.0
30/06:30pm 13.5 9.1 7.5 67 2.9 SW 20 28 11 15 1021.5 1021.5 0.0
30/06:00pm 14.9 8.9 5.4 53 4.5 WSW 26 33 14 18 1021.0 1021.0 0.0
30/05:30pm 15.2 9.7 7.5 60 3.8 SW 26 39 14 21 1020.4 1020.4 0.0
30/05:00pm 16.2 10.3 7.7 57 4.3 SW 28 43 15 23 1020.0 1020.0 0.0
30/04:30pm 16.6 10.8 8.1 57 4.3 WSW 28 39 15 21 1019.5 1019.5 0.0
30/04:00pm 17.2 10.2 7.0 51 5.1 W 33 46 18 25 1019.3 1019.3 0.0
30/03:30pm 18.2 11.2 6.7 47 5.7 WSW 33 48 18 26 1018.9 1018.9 0.0
30/03:06pm 18.3 10.8 6.5 46 5.9 W 35 54 19 29 1018.6 1018.6 0.0
30/03:00pm 18.1 10.4 6.9 48 5.6 W 37 48 20 26 1018.5 1018.5 0.0
30/02:37pm 17.8 10.7 8.1 53 5.0 WSW 35 56 19 30 1018.3 1018.3 0.0
30/02:30pm 18.5 12.0 9.0 54 5.0 WSW 33 48 18 26 1018.3 1018.3 0.0
30/02:00pm 19.0 12.4 10.0 56 4.8 WSW 35 44 19 24 1018.0 1018.0 0.0
30/01:51pm 17.6 11.1 10.2 62 3.9 W 35 54 19 29 1018.0 1018.0 0.0
30/01:30pm 18.5 11.4 9.6 56 4.7 W 37 46 20 25 1017.8 1017.8 0.0
30/01:14pm 19.2 12.3 10.2 56 4.8 W 37 56 20 30 1017.7 1017.7 0.0
30/01:00pm 18.1 10.6 9.5 57 4.5 W 39 54 21 29 1017.7 1017.7 0.0
30/12:30pm 18.2 11.1 9.5 57 4.6 WSW 37 50 20 27 1017.6 1017.6 0.0
30/12:00pm 18.7 10.6 10.0 57 4.6 W 43 54 23 29 1017.3 1017.3 0.0
30/11:36am 19.4 12.2 10.7 57 4.7 W 39 59 21 32 1017.1 1017.1 0.0
30/11:30am 18.8 11.7 10.9 60 4.3 W 39 52 21 28 1017.2 1017.2 0.0
30/11:00am 18.8 11.6 10.6 59 4.4 W 39 52 21 28 1017.1 1017.1 0.0
30/10:33am 18.3 12.0 11.1 63 3.9 W 35 54 19 29 1016.8 1016.8 0.0
30/10:30am 18.4 12.5 11.2 63 3.9 W 33 43 18 23 1016.8 1016.8 0.0
30/10:00am 18.0 11.3 11.1 64 3.7 W 37 48 20 26 1016.6 1016.6 0.0
30/09:30am 17.3 10.6 10.9 66 3.4 W 37 48 20 26 1016.4 1016.4 0.0
30/09:00am 17.7 12.1 11.5 67 3.4 W 32 50 17 27 1016.1 1016.1 0.0
30/08:30am 17.5 12.0 11.8 69 3.1 WNW 32 46 17 25 1015.5 1015.5 0.0
30/08:00am 16.3 11.5 12.8 80 1.9 W 30 39 16 21 1015.3 1015.3 0.0
30/07:50am 16.1 11.7 12.8 81 1.8 WNW 28 39 15 21 1015.2 1015.2 0.0
30/07:30am 14.5 12.8 13.7 95 0.4 WNW 15 20 8 11 1015.1 1015.1 0.0
30/07:00am 11.1 9.3 10.8 98 0.2 NW 11 15 6 8 1014.8 1014.8 0.0
30/06:30am 10.1 7.1 9.2 94 0.4 WNW 15 20 8 11 1014.6 1014.6 0.0
30/06:00am 10.3 7.0 9.4 94 0.4 NNW 17 22 9 12 1013.4 1013.4 0.0
30/05:30am 9.9 6.8 8.8 93 0.5 NNW 15 20 8 11 1013.4 1013.4 0.0
30/05:00am 7.5 5.1 7.2 98 0.1 N 9 13 5 7 1013.1 1013.1 0.0
30/04:30am 7.7 5.8 7.6 99 0.0 N 7 11 4 6 1012.8 1012.8 0.0
30/04:00am 7.2 5.2 7.2 100 0.0 N 7 9 4 5 1013.0 1013.0 0.0
30/03:30am 6.7 4.6 6.6 99 0.0 NNE 7 11 4 6 1012.6 1012.6 0.0
30/03:00am 8.5 5.6 8.1 97 0.2 NW 13 17 7 9 1012.7 1012.7 0.0
30/02:30am 5.9 4.2 5.9 100 0.0 SSW 4 9 2 5 1012.5 1012.5 0.0
30/02:00am 7.2 4.5 7.2 100 0.0 NNE 11 11 6 6 1012.3 1012.3 0.0
30/01:30am 7.8 5.2 7.8 100 0.0 NNE 11 13 6 7 1012.5 1012.5 0.0
30/01:00am 7.9 4.9 7.9 100 0.0 NNE 13 15 7 8 1012.9 1012.9 0.0
30/12:30am 8.5 5.7 8.5 100 0.0 NE 13 17 7 9 1013.2 1013.2 0.0
30/12:00am 7.5 4.8 7.5 100 0.0 NNE 11 13 6 7 1013.6 1013.6 0.0
 
Date/Time
CST
Temp
°C
App
Temp
°C
Dew
Point
Rel
Hum
%
Delta-T
°C
Wind Press
QNH
hPa
Press
MSL
hPa
Rain
since 9 am
mm
Dir
 
Spd
km/h
Gust
km/h
Spd
kts
Gust
kts
29/11:30pm 8.0 5.1 8.0 100 0.0 NE 13 13 7 7 1013.8 1013.8 0.0
29/11:00pm 8.0 5.5 8.0 100 0.0 NE 11 13 6 7 1014.4 1014.4 0.0
29/10:30pm 7.7 5.4 7.6 99 0.0 NNE 9 11 5 6 1014.8 1014.8 0.0
29/10:00pm 8.5 6.4 8.2 98 0.1 NE 9 11 5 6 1015.2 1015.2 0.0
29/09:30pm 8.1 5.8 7.3 95 0.4 NE 9 9 5 5 1015.3 1015.3 0.0
29/09:00pm 9.0 7.2 8.1 94 0.4 NNE 7 9 4 5 1015.3 1015.3 0.0
29/08:30pm 9.7 8.0 8.3 91 0.7 N 7 9 4 5 1015.3 1015.3 0.0
29/08:00pm 10.3 8.7 8.9 91 0.7 N 7 9 4 5 1015.1 1015.1 0.0
29/07:30pm 11.9 10.2 10.0 88 1.0 NW 9 9 5 5 1014.8 1014.8 0.0
29/07:00pm 13.3 11.8 10.7 84 1.4 NW 9 11 5 6 1014.5 1014.5 0.0
29/06:30pm 14.9 13.8 10.5 75 2.3 WNW 7 11 4 6 1014.7 1014.7 0.0
29/06:00pm 16.5 14.3 10.8 69 3.0 WNW 13 17 7 9 1014.6 1014.6 0.0
29/05:30pm 17.5 13.5 10.6 64 3.7 W 22 28 12 15 1014.6 1014.6 0.0
29/05:00pm 18.1 13.6 10.2 60 4.2 WNW 24 33 13 18 1014.3 1014.3 0.0
29/04:30pm 18.8 13.6 10.4 58 4.5 W 28 35 15 19 1014.1 1014.1 0.0
29/04:00pm 19.2 14.3 9.9 55 5.0 W 26 35 14 19 1013.8 1013.8 0.0
29/03:30pm 19.6 15.2 10.3 55 5.0 WNW 24 37 13 20 1013.6 1013.6 0.0
29/03:00pm 19.9 15.4 10.0 53 5.3 WNW 24 41 13 22 1013.5 1013.5 0.0
29/02:30pm 20.4 15.4 9.6 50 5.8 W 26 35 14 19 1013.5 1013.5 0.0
29/02:00pm 20.5 15.6 8.5 46 6.3 W 24 35 13 19 1013.9 1013.9 0.0
29/01:30pm 20.0 15.5 9.9 52 5.4 WNW 24 33 13 18 1014.2 1014.2 0.0
29/01:00pm 20.1 15.5 9.7 51 5.6 NNW 24 30 13 16 1014.3 1014.3 0.0
29/12:30pm 20.1 15.4 9.4 50 5.7 WNW 24 35 13 19 1014.6 1014.6 0.0
29/12:00pm 18.9 14.6 9.4 54 5.0 WNW 22 33 12 18 1015.1 1015.1 0.0
29/11:30am 18.8 14.9 9.3 54 5.0 WNW 20 33 11 18 1015.2 1015.2 0.0
29/11:00am 19.3 15.0 9.5 53 5.2 WNW 22 32 12 17 1015.3 1015.3 0.0
29/10:30am 18.6 15.1 10.2 58 4.5 NW 19 28 10 15 1015.5 1015.5 0.0
29/10:00am 18.8 15.7 11.6 63 4.0 NW 19 26 10 14 1015.9 1015.9 0.0
29/09:30am 17.1 13.9 12.0 72 2.8 NW 20 28 11 15 1016.0 1016.0 0.0
29/09:00am 17.5 16.1 14.4 82 1.8 N 15 20 8 11 1016.0 1016.0 0.0
29/08:30am 14.9 13.2 13.6 92 0.7 N 15 20 8 11 1015.9 1015.9 0.0
29/08:00am 13.1 11.6 13.1 100 0.0 N 13 17 7 9 1015.6 1015.6 0.0
29/07:30am 11.2 9.9 11.2 100 0.0 N 9 13 5 7 1015.6 1015.6 0.0
29/07:00am 8.3 6.6 8.3 100 0.0 NNE 7 9 4 5 1015.3 1015.3 0.0
29/06:30am 7.1 4.3 7.1 100 0.0 N 11 13 6 7 1014.9 1014.9 0.0
29/06:00am 7.1 5.1 7.1 100 0.0 NNE 7 11 4 6 1014.7 1014.7 0.0
29/05:30am 6.8 4.0 6.8 100 0.0 NNE 11 13 6 7 1014.6 1014.6 0.0
29/05:00am 7.5 6.2 7.5 100 0.0 N 4 7 2 4 1014.3 1014.3 0.0
29/04:30am 7.3 5.9 7.3 100 0.0 N 4 9 2 5 1014.2 1014.2 0.0
29/04:00am 7.2 4.5 7.2 100 0.0 NNE 11 13 6 7 1014.3 1014.3 0.0
29/03:30am 7.1 4.7 7.1 100 0.0 NE 9 11 5 6 1014.6 1014.6 0.0
29/03:00am 8.3 6.2 8.3 100 0.0 NE 9 11 5 6 1015.0 1015.0 0.0
29/02:30am 9.0 7.5 9.0 100 0.0 N 7 11 4 6 1015.1 1015.1 0.0
29/02:00am 9.1 6.8 9.1 100 0.0 NNE 11 13 6 7 1015.2 1015.2 0.0
29/01:30am 10.9 8.7 10.7 99 0.1 NNW 13 13 7 7 1015.2 1015.2 0.0
29/01:00am 11.9 9.8 11.1 95 0.4 WNW 13 17 7 9 1015.4 1015.4 0.0
29/12:30am 12.1 10.1 11.5 96 0.3 WNW 13 17 7 9 1015.6 1015.6 0.0
29/12:00am 12.6 11.5 12.1 97 0.3 WNW 9 13 5 7 1015.8 1015.8 0.0
 
Date/Time
CST
Temp
°C
App
Temp
°C
Dew
Point
Rel
Hum
%
Delta-T
°C
Wind Press
QNH
hPa
Press
MSL
hPa
Rain
since 9 am
mm
Dir
 
Spd
km/h
Gust
km/h
Spd
kts
Gust
kts
28/11:30pm 12.8 10.7 12.3 97 0.3 W 15 19 8 10 1015.8 1015.8 0.0
28/11:00pm 12.7 9.8 12.2 97 0.3 WNW 19 20 10 11 1015.7 1015.7 0.0
28/10:30pm 12.7 11.2 11.9 95 0.4 NW 11 13 6 7 1015.6 1015.6 0.0
28/10:00pm 13.4 10.5 12.3 93 0.6 W 19 22 10 12 1015.3 1015.3 0.0
28/09:30pm 13.8 12.0 12.0 89 1.0 WNW 13 17 7 9 1015.6 1015.6 0.0
28/09:00pm 13.9 11.6 11.9 88 1.1 WNW 15 24 8 13 1015.1 1015.1 0.0
28/08:30pm 14.2 11.6 12.1 87 1.1 WNW 17 26 9 14 1014.7 1014.7 0.0
28/08:00pm 14.4 11.7 11.7 84 1.5 WNW 17 22 9 12 1014.5 1014.5 0.0
28/07:30pm 14.1 11.4 11.6 85 1.3 WNW 17 24 9 13 1014.1 1014.1 0.0
28/07:00pm 14.3 10.9 10.7 79 1.9 WNW 19 26 10 14 1013.6 1013.6 0.0
28/06:30pm 15.3 10.2 10.5 73 2.5 W 28 35 15 19 1013.1 1013.1 0.0
28/06:00pm 16.0 10.3 9.9 67 3.2 W 30 44 16 24 1012.6 1012.6 0.0
28/05:30pm 17.0 10.9 10.4 65 3.5 W 33 48 18 26 1012.1 1012.1 0.0
28/05:00pm 18.0 12.0 10.1 60 4.2 W 32 48 17 26 1011.6 1011.5 0.0
28/04:30pm 18.5 10.6 7.9 50 5.4 W 39 57 21 31 1011.1 1011.0 0.0
28/04:00pm 18.6 11.9 9.7 56 4.7 W 35 46 19 25 1010.8 1010.8 0.0
28/03:30pm 19.0 11.1 9.5 54 5.0 W 41 52 22 28 1010.4 1010.4 0.0
28/03:00pm 20.3 13.3 10.1 52 5.5 W 37 50 20 27 1010.3 1010.3 0.0
28/02:30pm 20.0 12.4 9.0 49 5.8 W 39 52 21 28 1010.0 1010.0 0.0
28/02:00pm 20.5 13.5 10.0 51 5.7 W 37 48 20 26 1010.0 1010.0 0.0
28/01:30pm 21.1 14.5 10.0 49 6.0 W 35 48 19 26 1009.8 1009.8 0.0
28/01:00pm 21.2 14.7 10.4 50 5.9 W 35 46 19 25 1009.6 1009.6 0.0
28/12:30pm 21.5 15.4 11.8 54 5.4 WNW 35 46 19 25 1009.3 1009.3 0.0
28/12:00pm 22.4 15.3 9.6 44 6.9 W 37 48 20 26 1009.0 1009.0 0.0
28/11:30am 24.2 17.0 7.8 35 8.7 W 35 46 19 25 1008.6 1008.6 0.0
28/11:00am 25.3 19.3 8.7 35 9.0 WNW 30 43 16 23 1008.3 1008.3 0.0
28/10:30am 24.9 20.9 10.4 40 8.1 NNW 22 30 12 16 1007.8 1007.8 0.0
28/10:00am 23.6 20.3 11.6 47 6.8 NNW 20 28 11 15 1008.0 1008.0 0.0
28/09:30am 22.0 19.9 12.5 54 5.4 WNW 15 20 8 11 1008.3 1008.3 0.0
28/09:00am 21.0 17.7 12.7 59 4.7 WNW 22 30 12 16 1008.4 1008.4 0.0
28/08:30am 21.9 16.7 10.1 47 6.4 NW 28 41 15 22 1008.1 1008.1 0.0
28/08:00am 21.7 16.7 7.9 41 7.2 NW 24 37 13 20 1008.1 1008.1 0.0
28/07:30am 20.5 15.6 6.8 41 7.0 NW 22 32 12 17 1007.9 1007.9 0.0
28/07:00am 17.8 14.0 4.0 40 6.5 WNW 13 20 7 11 1008.1 1008.1 0.0
28/06:30am 19.2 14.3 1.7 31 8.0 NNW 17 24 9 13 1007.0 1007.0 0.0
28/06:00am 20.1 14.2 1.5 29 8.5 NNW 22 30 12 16 1006.4 1006.4 0.0
28/05:45am 21.6 13.5 0.8 25 9.5 N 33 52 18 28 1005.1 1005.1 0.0
28/05:30am 21.7 12.8 0.8 25 9.6 N 37 54 20 29 1003.6 1003.6 0.0
28/05:02am 22.3 12.6 0.8 24 9.9 N 41 61 22 33 1003.6 1003.6 0.0
28/05:00am 22.0 12.4 1.1 25 9.6 N 41 57 22 31 1003.6 1003.6 0.0
28/04:37am 22.2 13.0 1.3 25 9.7 N 39 57 21 31 1003.6 1003.6 0.0
28/04:30am 22.3 13.0 0.8 24 9.9 N 39 54 21 29 1003.6 1003.6 0.0
28/04:22am 22.2 13.0 1.3 25 9.7 N 39 57 21 31 1003.6 1003.6 0.0
28/04:00am 22.5 12.9 0.9 24 9.9 N 41 54 22 29 1004.0 1004.0 0.0
28/03:35am 22.7 13.9 1.1 24 10.0 N 37 61 20 33 1004.5 1004.5 0.0
28/03:30am 22.6 13.5 1.6 25 9.8 N 39 52 21 28 1004.6 1004.6 0.0
28/03:00am 23.0 13.8 1.4 24 10.1 N 39 57 21 31 1004.9 1004.9 0.0
28/02:55am 23.1 13.9 1.4 24 10.1 N 39 57 21 31 1005.0 1005.0 0.0
28/02:30am 23.2 14.0 1.5 24 10.2 N 39 56 21 30 1005.5 1005.5 0.0
28/02:14am 23.4 14.7 1.7 24 10.2 N 37 56 20 30 1005.9 1005.9 0.0
28/02:00am 23.5 14.8 1.8 24 10.2 N 37 52 20 28 1006.5 1006.5 0.0
28/01:30am 23.7 15.0 2.0 24 10.3 N 37 50 20 27 1007.0 1007.0 0.0
28/01:00am 23.8 15.5 2.0 24 10.3 N 35 48 19 26 1007.4 1007.4 0.0
28/12:30am 23.3 15.4 2.2 25 10.0 N 33 52 18 28 1007.9 1007.9 0.0
28/12:23am 23.2 15.3 2.1 25 10.0 N 33 52 18 28 1007.9 1007.9 0.0
28/12:00am 23.5 15.1 1.8 24 10.3 N 35 46 19 25 1008.2 1008.2 0.0
 
Date/Time
CST
Temp
°C
App
Temp
°C
Dew
Point
Rel
Hum
%
Delta-T
°C
Wind Press
QNH
hPa
Press
MSL
hPa
Rain
since 9 am
mm
Dir
 
Spd
km/h
Gust
km/h
Spd
kts
Gust
kts
27/11:30pm 22.9 15.9 1.8 25 9.9 N 28 41 15 22 1008.5 1008.5 0.0
27/11:00pm 20.3 14.9 2.2 30 8.4 NNE 20 30 11 16 1008.8 1008.8 0.0
27/10:30pm 19.9 14.4 1.8 30 8.3 NNE 20 26 11 14 1009.1 1009.1 0.0
27/10:00pm 16.9 12.2 3.2 40 6.3 NNE 17 22 9 12 1009.4 1009.4 0.0

Other Formats:

Comma delimited format used in spreadsheet applications
http://www.bom.gov.au/fwo/IDS60801/IDS60801.95663.axf

JavaScript Object Notation format (JSON) in row-major order
http://www.bom.gov.au/fwo/IDS60801/IDS60801.95663.json